KMSN/MSN METAR and TAF weather

Enter ICAO airport designator
Station Type Date Time Source
KMSN METAR 2021/05/11 21:53 UTC NOAA

KMSN 112153Z 05006KT 10SM BKN075 12/M04 A3032 RMK AO2 SLP272 T01221039


Station Type Date Time Source
KMSN Decoded METAR 2021/05/11 21:53 UTC NOAA

MADISON DANE COUNTY RGNL, WI, United States (KMSN) 43-08N 89-21W 261M
May 11, 2021 - 05:53 PM EDT / 2021.05.11 2153 UTC
Wind: from the NE (050 degrees) at 7 MPH (6 KT):0
Visibility: 10 mile(s):0
Sky conditions: mostly cloudy
Temperature: 54.0 F (12.2 C)
Dew Point: 25.0 F (-3.9 C)
Relative Humidity: 32%
Pressure (altimeter): 30.32 in. Hg (1026 hPa)
ob: KMSN 112153Z 05006KT 10SM BKN075 12/M04 A3032 RMK AO2 SLP272 T01221039
cycle: 22

Station Type Date Time Source
KMSN TAF 2021/05/11 21:58 UTC NOAA

TAF
AMD KMSN 112058Z 1121/1218 05008KT P6SM SCT060
FM120100 35003KT P6SM FEW250
FM121500 33006KT P6SM SKC

Example: see airport list